TimeCDT,TemperatureF,Dew PointF,Humidity,Sea Level PressureIn,VisibilityMPH,Wind Direction,Wind SpeedMPH,Gust SpeedMPH,PrecipitationIn,Events,Conditions,WindDirDegrees,DateUTC
12:15 AM,20.1,11.8,70,30.36,10.0,NNW,15.0,21.9,N/A,,Clear,340,2013-03-20 05:15:00
12:35 AM,19.4,11.5,71,30.37,10.0,NNW,16.1,23.0,N/A,,Clear,340,2013-03-20 05:35:00
12:55 AM,18.5,11.1,73,30.37,10.0,NNW,10.4,-,N/A,,Clear,340,2013-03-20 05:55:00
1:15 AM,18.1,11.3,75,30.37,10.0,NNW,9.2,-,N/A,,Clear,340,2013-03-20 06:15:00
1:35 AM,18.3,10.9,73,30.37,10.0,NNW,11.5,-,N/A,,Clear,330,2013-03-20 06:35:00
1:55 AM,17.6,10.8,75,30.37,10.0,NNW,9.2,-,N/A,,Clear,330,2013-03-20 06:55:00
2:15 AM,17.6,10.8,75,30.37,10.0,NNW,12.7,-,N/A,,Clear,330,2013-03-20 07:15:00
2:35 AM,17.2,10.9,76,30.38,10.0,NNW,8.1,-,N/A,,Clear,330,2013-03-20 07:35:00
2:55 AM,16.7,10.9,78,30.38,10.0,NNW,9.2,-,N/A,,Clear,330,2013-03-20 07:55:00
3:15 AM,16.5,11.3,80,30.39,10.0,NNW,12.7,-,N/A,,Scattered Clouds,330,2013-03-20 08:15:00
3:35 AM,16.2,10.0,77,30.39,10.0,NNW,12.7,-,N/A,,Scattered Clouds,330,2013-03-20 08:35:00
3:55 AM,15.8,9.5,76,30.39,10.0,NNW,12.7,-,N/A,,Clear,330,2013-03-20 08:55:00
4:15 AM,15.1,8.6,76,30.39,10.0,NNW,10.4,-,N/A,,Clear,330,2013-03-20 09:15:00
4:35 AM,14.5,8.6,77,30.39,10.0,NNW,9.2,-,N/A,,Clear,330,2013-03-20 09:35:00
4:55 AM,14.0,9.1,81,30.39,10.0,NNW,8.1,-,N/A,,Clear,330,2013-03-20 09:55:00
5:15 AM,13.8,9.0,81,30.39,10.0,NNW,8.1,-,N/A,,Clear,330,2013-03-20 10:15:00
5:35 AM,13.8,8.4,79,30.39,10.0,NNW,9.2,-,N/A,,Clear,330,2013-03-20 10:35:00
5:55 AM,13.6,7.7,77,30.39,10.0,NW,10.4,-,N/A,,Clear,320,2013-03-20 10:55:00
6:15 AM,13.1,6.8,76,30.39,10.0,NW,10.4,-,N/A,,Clear,320,2013-03-20 11:15:00
6:35 AM,12.7,5.5,73,30.39,10.0,NW,6.9,-,N/A,,Clear,320,2013-03-20 11:35:00
6:55 AM,12.2,5.9,76,30.39,10.0,NW,6.9,-,N/A,,Clear,310,2013-03-20 11:55:00
7:15 AM,12.2,5.4,74,30.39,10.0,NW,6.9,-,N/A,,Clear,320,2013-03-20 12:15:00
7:35 AM,12.0,4.8,73,30.39,10.0,NW,5.8,-,N/A,,Clear,320,2013-03-20 12:35:00
7:55 AM,12.0,5.0,73,30.39,10.0,NW,5.8,-,N/A,,Clear,320,2013-03-20 12:55:00
8:15 AM,12.9,5.9,74,30.39,10.0,NW,6.9,-,N/A,,Clear,320,2013-03-20 13:15:00
8:35 AM,14.2,5.4,68,30.37,10.0,NNW,11.5,-,N/A,,Clear,340,2013-03-20 13:35:00
8:55 AM,15.3,5.0,64,30.38,10.0,NNW,12.7,-,N/A,,Clear,340,2013-03-20 13:55:00
9:15 AM,16.5,4.8,60,30.38,10.0,NNW,11.5,-,N/A,,Clear,340,2013-03-20 14:15:00
9:35 AM,17.4,3.7,55,30.37,10.0,NNW,16.1,-,N/A,,Clear,340,2013-03-20 14:35:00
9:55 AM,17.8,3.0,53,30.37,10.0,NNW,11.5,-,N/A,,Clear,340,2013-03-20 14:55:00
10:15 AM,19.2,3.7,51,30.37,10.0,NNW,13.8,-,N/A,,Clear,340,2013-03-20 15:15:00
10:35 AM,19.8,3.0,48,30.38,10.0,NNW,13.8,20.7,N/A,,Clear,340,2013-03-20 15:35:00
10:55 AM,20.3,3.4,48,30.38,10.0,NNW,11.5,-,N/A,,Clear,340,2013-03-20 15:55:00
11:15 AM,21.6,3.6,46,30.37,10.0,North,10.4,18.4,N/A,,Clear,350,2013-03-20 16:15:00
11:35 AM,22.6,3.2,43,30.36,10.0,North,12.7,17.3,N/A,,Clear,350,2013-03-20 16:35:00
11:55 AM,22.8,2.7,42,30.36,10.0,NW,9.2,17.3,N/A,,Clear,320,2013-03-20 16:55:00
12:15 PM,24.1,3.0,40,30.35,10.0,NW,5.8,17.3,N/A,,Clear,320,2013-03-20 17:15:00
12:35 PM,25.3,3.2,39,30.33,10.0,NW,10.4,-,N/A,,Clear,320,2013-03-20 17:35:00
12:55 PM,25.7,3.0,38,30.32,10.0,NNW,11.5,-,N/A,,Clear,340,2013-03-20 17:55:00
1:15 PM,26.4,2.5,36,30.32,10.0,NNW,11.5,19.6,N/A,,Clear,330,2013-03-20 18:15:00
1:35 PM,27.5,2.5,34,30.30,10.0,NNW,10.4,17.3,N/A,,Clear,330,2013-03-20 18:35:00
1:55 PM,28.4,1.6,32,30.29,10.0,NNW,11.5,18.4,N/A,,Clear,340,2013-03-20 18:55:00
2:15 PM,29.7,3.4,33,30.27,10.0,NNW,11.5,19.6,N/A,,Clear,330,2013-03-20 19:15:00
2:35 PM,30.2,3.7,33,30.26,10.0,WNW,8.1,18.4,N/A,,Clear,300,2013-03-20 19:35:00
2:55 PM,30.9,4.3,32,30.24,10.0,NNW,6.9,-,N/A,,Clear,330,2013-03-20 19:55:00
3:15 PM,31.1,3.9,32,30.23,10.0,NNW,10.4,-,N/A,,Clear,340,2013-03-20 20:15:00
3:35 PM,31.8,5.2,33,30.22,10.0,NNW,12.7,17.3,N/A,,Clear,330,2013-03-20 20:35:00
3:55 PM,32.2,5.2,32,30.21,10.0,NNW,15.0,-,N/A,,Clear,330,2013-03-20 20:55:00
4:15 PM,32.7,5.5,32,30.19,10.0,North,5.8,-,N/A,,Clear,360,2013-03-20 21:15:00
4:35 PM,32.7,5.4,32,30.19,10.0,NNW,9.2,-,N/A,,Clear,340,2013-03-20 21:35:00
4:55 PM,32.9,5.0,31,30.18,10.0,NW,5.8,-,N/A,,Clear,310,2013-03-20 21:55:00
5:15 PM,32.9,6.1,32,30.17,10.0,North,8.1,-,N/A,,Clear,350,2013-03-20 22:15:00
5:35 PM,33.3,6.4,32,30.17,10.0,North,8.1,-,N/A,,Clear,350,2013-03-20 22:35:00
5:55 PM,32.9,6.1,32,30.16,10.0,North,10.4,-,N/A,,Clear,360,2013-03-20 22:55:00
6:15 PM,32.0,5.7,33,30.15,10.0,North,8.1,-,N/A,,Clear,360,2013-03-20 23:15:00
6:35 PM,32.0,6.3,34,30.15,10.0,North,9.2,-,N/A,,Clear,10,2013-03-20 23:35:00
6:55 PM,32.0,7.2,35,30.14,10.0,North,6.9,-,N/A,,Clear,360,2013-03-20 23:55:00
7:15 PM,30.7,7.0,37,30.14,10.0,North,8.1,-,N/A,,Clear,10,2013-03-21 00:15:00
7:35 PM,28.8,7.9,41,30.13,10.0,NNE,6.9,-,N/A,,Clear,20,2013-03-21 00:35:00
7:55 PM,26.8,9.7,49,30.13,10.0,North,4.6,-,N/A,,Clear,360,2013-03-21 00:55:00
8:15 PM,23.9,9.5,54,30.13,10.0,Calm,Calm,-,N/A,,Clear,0,2013-03-21 01:15:00
8:35 PM,23.4,10.6,58,30.13,10.0,Calm,Calm,-,N/A,,Clear,0,2013-03-21 01:35:00
8:55 PM,23.2,10.4,58,30.13,10.0,Calm,Calm,-,N/A,,Clear,0,2013-03-21 01:55:00
9:15 PM,22.8,10.8,60,30.13,10.0,ENE,3.5,-,N/A,,Clear,60,2013-03-21 02:15:00
9:35 PM,21.0,10.8,65,30.12,10.0,East,4.6,-,N/A,,Clear,100,2013-03-21 02:35:00
9:55 PM,22.6,11.3,62,30.12,10.0,East,6.9,-,N/A,,Clear,80,2013-03-21 02:55:00
10:15 PM,22.1,11.7,64,30.12,10.0,East,6.9,-,N/A,,Clear,80,2013-03-21 03:15:00
10:35 PM,20.7,11.8,69,30.12,10.0,East,4.6,-,N/A,,Clear,80,2013-03-21 03:35:00
10:55 PM,20.3,12.0,70,30.11,10.0,Calm,Calm,-,N/A,,Clear,0,2013-03-21 03:55:00
11:15 PM,20.1,12.7,73,30.10,10.0,Calm,Calm,-,N/A,,Clear,0,2013-03-21 04:15:00
11:35 PM,20.3,12.7,73,30.10,10.0,Calm,Calm,-,N/A,,Clear,0,2013-03-21 04:35:00
11:55 PM,19.8,12.6,74,30.09,10.0,Calm,Calm,-,N/A,,Clear,0,2013-03-21 04:55:00